createdAt,value
2022-10-31T00:00:31.621Z,83.24
2022-10-31T00:03:00.093Z,83.43
2022-10-31T00:05:26.861Z,83.15
2022-10-31T00:07:53.773Z,83.39
2022-10-31T00:10:20.384Z,83.17
2022-10-31T00:12:47.063Z,83.37
2022-10-31T00:15:14.192Z,83.21
2022-10-31T00:17:41.037Z,83.39
2022-10-31T00:20:10.491Z,83.04
2022-10-31T00:22:37.200Z,83.37
2022-10-31T00:25:04.335Z,83.35
2022-10-31T00:27:32.495Z,83.08
2022-10-31T00:29:59.412Z,83.48
2022-10-31T00:32:26.078Z,83.44
2022-10-31T00:34:52.978Z,83.25
2022-10-31T00:37:23.597Z,83.07
2022-10-31T00:39:50.583Z,83.24
2022-10-31T00:42:17.327Z,83.54
2022-10-31T00:44:43.950Z,83.54
2022-10-31T00:47:10.556Z,83.02
2022-10-31T00:49:37.237Z,83.48
2022-10-31T00:52:03.976Z,83.37
2022-10-31T00:54:31.962Z,83.26
2022-10-31T00:56:58.833Z,83.29
2022-10-31T00:59:25.507Z,83.39
2022-10-31T01:01:52.314Z,83.32
2022-10-31T01:04:19.085Z,83.40
2022-10-31T01:06:45.731Z,83.18
2022-10-31T01:09:12.462Z,83.37
2022-10-31T01:11:40.468Z,83.23
2022-10-31T01:14:08.778Z,83.26
2022-10-31T01:16:35.636Z,83.09
2022-10-31T01:19:03.367Z,83.06
2022-10-31T01:21:30.661Z,83.14
2022-10-31T01:23:57.868Z,83.54
2022-10-31T01:26:26.560Z,83.16
2022-10-31T01:28:56.389Z,83.35
2022-10-31T01:31:26.694Z,83.59
2022-10-31T01:33:54.422Z,83.54
2022-10-31T01:36:23.443Z,83.22
2022-10-31T01:38:51.154Z,83.38
2022-10-31T01:41:19.824Z,83.12
2022-10-31T01:43:50.225Z,83.25
2022-10-31T01:46:21.493Z,83.44
2022-10-31T01:48:49.301Z,83.47
2022-10-31T01:51:18.581Z,83.39
2022-10-31T01:53:47.346Z,83.52
2022-10-31T01:56:15.115Z,83.64
2022-10-31T01:58:42.924Z,83.61
2022-10-31T02:01:09.881Z,83.26
2022-10-31T02:03:38.330Z,83.51
2022-10-31T02:06:11.650Z,83.54
2022-10-31T02:08:40.134Z,83.55
2022-10-31T02:11:08.530Z,83.53
2022-10-31T02:13:35.457Z,83.76
2022-10-31T02:16:02.078Z,83.50
2022-10-31T02:18:31.710Z,83.72
2022-10-31T02:21:12.006Z,83.87
2022-10-31T02:24:27.070Z,83.86
2022-10-31T02:27:34.219Z,84.00
2022-10-31T02:30:07.310Z,83.74
2022-10-31T02:32:46.258Z,83.68
2022-10-31T02:35:20.938Z,83.66
2022-10-31T02:37:58.243Z,83.77
2022-10-31T02:40:28.516Z,84.01
2022-10-31T02:43:04.094Z,83.76
2022-10-31T02:45:38.967Z,83.84
2022-10-31T02:48:12.053Z,84.04
2022-10-31T02:50:47.007Z,83.73
2022-10-31T02:53:16.245Z,83.92
2022-10-31T02:55:52.249Z,83.63
2022-10-31T02:58:23.073Z,83.75
2022-10-31T03:01:03.508Z,83.86
2022-10-31T03:03:38.445Z,83.84
2022-10-31T03:06:13.582Z,83.98
2022-10-31T03:08:48.204Z,83.91
2022-10-31T03:11:15.723Z,83.93
2022-10-31T03:13:50.884Z,83.81
2022-10-31T03:16:24.738Z,83.70
2022-10-31T03:18:57.531Z,83.59
2022-10-31T03:21:29.844Z,83.53
2022-10-31T03:23:58.570Z,83.61
2022-10-31T03:26:26.716Z,83.70
2022-10-31T03:28:58.090Z,83.75
2022-10-31T03:31:30.556Z,83.65
2022-10-31T03:34:01.850Z,83.44
2022-10-31T03:36:31.460Z,83.22
2022-10-31T03:39:00.936Z,83.29
2022-10-31T03:41:32.710Z,83.32
2022-10-31T03:44:04.992Z,83.27
2022-10-31T03:46:31.855Z,83.66
2022-10-31T03:49:00.559Z,83.18
2022-10-31T03:51:35.526Z,83.54
2022-10-31T03:54:10.148Z,83.32
2022-10-31T03:56:41.240Z,83.40
2022-10-31T03:59:17.317Z,83.04
2022-10-31T04:01:48.346Z,83.11
2022-10-31T04:04:16.970Z,83.19
2022-10-31T04:06:45.434Z,83.29
2022-10-31T04:09:13.148Z,83.08
2022-10-31T04:11:45.635Z,82.66
2022-10-31T04:14:13.076Z,82.86
2022-10-31T04:16:45.308Z,82.92
2022-10-31T04:19:13.135Z,83.03
2022-10-31T04:21:44.246Z,83.16
2022-10-31T04:24:11.119Z,82.72
2022-10-31T04:26:38.238Z,82.93
2022-10-31T04:29:05.137Z,83.02
2022-10-31T04:31:31.757Z,83.05
2022-10-31T04:33:58.573Z,82.91
2022-10-31T04:36:25.318Z,83.01
2022-10-31T04:38:53.486Z,83.04
2022-10-31T04:41:20.159Z,82.83
2022-10-31T04:43:46.792Z,82.89
2022-10-31T04:46:13.691Z,82.92
2022-10-31T04:48:40.386Z,82.96
2022-10-31T04:51:08.253Z,82.81
2022-10-31T04:53:35.023Z,82.82
2022-10-31T04:56:03.131Z,82.78
2022-10-31T04:58:30.154Z,82.87
2022-10-31T05:00:57.444Z,82.52
2022-10-31T05:03:24.493Z,82.92
2022-10-31T05:05:57.712Z,82.73
2022-10-31T05:08:24.433Z,82.76
2022-10-31T05:10:51.136Z,82.65
2022-10-31T05:15:46.590Z,82.75
2022-10-31T05:18:13.298Z,82.87
2022-10-31T05:20:40.003Z,83.01
2022-10-31T05:23:06.787Z,82.87
2022-10-31T05:25:33.568Z,83.13
2022-10-31T05:28:00.688Z,82.79
2022-10-31T05:30:30.621Z,83.20
2022-10-31T05:32:58.102Z,82.75
2022-10-31T05:35:26.882Z,83.22
2022-10-31T05:37:53.705Z,82.98
2022-10-31T05:40:22.331Z,83.13
2022-10-31T05:42:51.973Z,83.45
2022-10-31T05:45:20.296Z,83.11
2022-10-31T05:47:53.024Z,83.54
2022-10-31T05:50:20.172Z,83.56
2022-10-31T05:52:46.926Z,83.42
2022-10-31T05:55:16.800Z,83.46
2022-10-31T05:57:43.521Z,83.69
2022-10-31T06:00:10.938Z,83.60
2022-10-31T06:02:39.552Z,83.64
2022-10-31T06:05:11.397Z,83.86
2022-10-31T06:07:38.562Z,83.84
2022-10-31T06:10:07.461Z,83.70
2022-10-31T06:12:38.528Z,83.67
2022-10-31T06:15:06.798Z,83.55
2022-10-31T06:17:34.417Z,83.55
2022-10-31T06:20:01.450Z,83.68
2022-10-31T06:22:29.541Z,83.97
2022-10-31T06:24:56.380Z,83.66
2022-10-31T06:27:23.570Z,83.69
2022-10-31T06:29:50.683Z,83.61
2022-10-31T06:32:17.636Z,83.98
2022-10-31T06:34:44.893Z,83.72
2022-10-31T06:37:13.156Z,83.55
2022-10-31T06:39:41.318Z,83.64
2022-10-31T06:42:07.924Z,83.58
2022-10-31T06:44:34.854Z,83.93
2022-10-31T06:47:01.587Z,83.77
2022-10-31T06:49:28.654Z,83.82
2022-10-31T06:51:59.430Z,83.86
2022-10-31T06:54:26.090Z,84.27
2022-10-31T06:56:54.142Z,84.23
2022-10-31T06:59:20.897Z,84.10
2022-10-31T07:01:47.866Z,84.41
2022-10-31T07:04:14.725Z,84.48
2022-10-31T07:06:48.258Z,84.49
2022-10-31T07:09:20.212Z,84.25
2022-10-31T07:11:46.814Z,84.43
2022-10-31T07:14:14.856Z,84.36
2022-10-31T07:16:41.499Z,84.54
2022-10-31T07:19:08.184Z,84.48
2022-10-31T07:21:35.038Z,84.63
2022-10-31T07:24:06.510Z,84.55
2022-10-31T07:26:33.344Z,84.78
2022-10-31T07:29:00.298Z,84.99
2022-10-31T07:31:28.363Z,85.06
2022-10-31T07:33:55.109Z,85.09
2022-10-31T07:36:21.913Z,85.04
2022-10-31T07:38:48.819Z,85.37
2022-10-31T07:41:15.475Z,85.55
2022-10-31T07:43:42.383Z,85.50
2022-10-31T07:46:09.208Z,85.92
2022-10-31T07:48:37.415Z,86.04
2022-10-31T07:51:04.182Z,86.09
2022-10-31T07:53:36.051Z,86.13
2022-10-31T07:56:02.861Z,85.93
2022-10-31T07:58:29.571Z,86.17
2022-10-31T08:00:56.401Z,86.44
2022-10-31T08:03:23.389Z,86.33
2022-10-31T08:05:51.413Z,86.34
2022-10-31T08:08:18.505Z,86.74
2022-10-31T08:10:45.324Z,86.83
2022-10-31T08:13:14.258Z,86.92
2022-10-31T08:15:42.876Z,87.10
2022-10-31T08:18:14.763Z,87.04
2022-10-31T08:20:42.256Z,87.12
2022-10-31T08:23:12.296Z,87.54
2022-10-31T08:25:39.272Z,87.58
2022-10-31T08:28:07.160Z,87.70
2022-10-31T08:30:37.820Z,87.69
2022-10-31T08:33:06.992Z,87.77
2022-10-31T08:35:34.485Z,87.70
2022-10-31T08:38:02.050Z,87.72
2022-10-31T08:40:32.368Z,87.87
2022-10-31T08:43:03.581Z,88.04
2022-10-31T08:45:31.813Z,88.01
2022-10-31T08:48:00.038Z,88.13
2022-10-31T08:50:27.819Z,87.84
2022-10-31T08:53:09.509Z,88.02
2022-10-31T08:55:39.618Z,87.98
2022-10-31T08:58:07.940Z,88.38
2022-10-31T09:00:35.694Z,88.51
2022-10-31T09:03:05.403Z,88.49
2022-10-31T09:05:32.420Z,88.61
2022-10-31T09:08:00.463Z,88.72
2022-10-31T09:10:29.065Z,88.75
2022-10-31T09:12:58.825Z,89.04
2022-10-31T09:15:25.929Z,89.00
2022-10-31T09:17:53.120Z,88.42
2022-10-31T09:20:20.193Z,88.51
2022-10-31T09:22:47.414Z,88.50
2022-10-31T09:25:14.546Z,88.48
2022-10-31T09:27:41.194Z,88.67
2022-10-31T09:30:10.565Z,88.59
2022-10-31T09:32:37.162Z,88.81
2022-10-31T09:35:03.930Z,89.04
2022-10-31T09:37:30.770Z,88.94
2022-10-31T09:39:57.695Z,88.85
2022-10-31T09:42:46.403Z,88.73
2022-10-31T09:45:22.830Z,88.70
2022-10-31T09:48:09.289Z,88.96
2022-10-31T09:50:42.583Z,88.79
2022-10-31T09:53:16.618Z,88.58
2022-10-31T09:55:49.043Z,88.31
2022-10-31T09:58:21.120Z,88.63
2022-10-31T10:00:52.658Z,88.38
2022-10-31T10:03:29.505Z,88.63
2022-10-31T10:06:05.415Z,88.35
2022-10-31T10:08:35.901Z,88.43
2022-10-31T10:11:25.699Z,88.58
2022-10-31T10:14:15.390Z,88.62
2022-10-31T10:16:59.911Z,88.70
2022-10-31T10:19:40.593Z,88.32
2022-10-31T10:22:15.770Z,88.58
2022-10-31T10:25:00.414Z,88.44
2022-10-31T10:27:38.675Z,88.28
2022-10-31T10:30:15.132Z,88.42
2022-10-31T10:32:50.945Z,88.37
2022-10-31T10:35:25.975Z,88.40
2022-10-31T10:38:04.081Z,88.36
2022-10-31T10:40:31.405Z,88.22
2022-10-31T10:43:26.302Z,88.39
2022-10-31T10:46:35.608Z,88.15
2022-10-31T10:49:13.284Z,88.33
2022-10-31T10:52:18.959Z,88.17
2022-10-31T10:54:47.838Z,88.01
2022-10-31T10:57:36.404Z,87.74
2022-10-31T11:00:04.539Z,87.82
2022-10-31T11:02:33.574Z,87.48
2022-10-31T11:05:03.063Z,87.49
2022-10-31T11:07:38.981Z,87.62
2022-10-31T11:10:14.003Z,87.72
2022-10-31T11:12:41.768Z,87.61
2022-10-31T11:15:21.684Z,87.21
2022-10-31T11:17:52.258Z,87.42
2022-10-31T11:20:32.636Z,87.18
2022-10-31T11:23:06.663Z,87.23
2022-10-31T11:25:34.016Z,86.96
2022-10-31T11:28:01.679Z,86.75
2022-10-31T11:30:29.444Z,87.14
2022-10-31T11:32:58.149Z,87.03
2022-10-31T11:35:28.672Z,86.93
2022-10-31T11:38:01.286Z,86.88
2022-10-31T11:40:30.541Z,86.91
2022-10-31T11:42:59.966Z,86.71
2022-10-31T11:45:34.945Z,86.60
2022-10-31T11:48:03.647Z,86.38
2022-10-31T11:50:36.220Z,86.45
2022-10-31T11:53:04.487Z,86.32
2022-10-31T11:55:34.138Z,86.01
2022-10-31T11:58:01.363Z,86.20
2022-10-31T12:00:33.574Z,85.90
2022-10-31T12:03:13.367Z,85.94
2022-10-31T12:05:45.871Z,85.87
2022-10-31T12:08:14.343Z,85.63
2022-10-31T12:10:48.031Z,85.57
2022-10-31T12:13:34.673Z,85.35
2022-10-31T12:16:07.629Z,85.24
2022-10-31T12:19:00.603Z,85.10
2022-10-31T12:21:44.339Z,85.07
2022-10-31T12:24:26.676Z,84.93
2022-10-31T12:27:03.352Z,84.98
2022-10-31T12:29:44.994Z,84.85
2022-10-31T12:32:31.730Z,84.88
2022-10-31T12:35:17.977Z,84.83
2022-10-31T12:38:06.052Z,84.81
2022-10-31T12:40:52.333Z,84.81
2022-10-31T12:43:32.560Z,84.70
2022-10-31T12:46:01.434Z,84.72
2022-10-31T12:48:52.656Z,84.73
2022-10-31T12:51:29.810Z,84.57
2022-10-31T12:54:13.617Z,84.64
2022-10-31T12:56:49.612Z,84.51
2022-10-31T12:59:22.900Z,84.43
2022-10-31T13:01:55.809Z,84.27
2022-10-31T13:04:37.541Z,84.27
2022-10-31T13:07:09.895Z,84.01
2022-10-31T13:09:44.110Z,84.12
2022-10-31T13:12:14.539Z,83.93
2022-10-31T13:14:45.603Z,83.96
2022-10-31T13:17:22.162Z,83.72
2022-10-31T13:19:51.494Z,83.60
2022-10-31T13:22:27.448Z,83.46
2022-10-31T13:25:00.750Z,83.21
2022-10-31T13:27:32.206Z,83.00
2022-10-31T13:30:06.751Z,83.01
2022-10-31T13:32:40.588Z,82.82
2022-10-31T13:35:16.184Z,82.69
2022-10-31T13:37:54.656Z,82.73
2022-10-31T13:40:35.272Z,82.61
2022-10-31T13:43:10.454Z,82.59
2022-10-31T13:45:48.435Z,82.46
2022-10-31T13:48:21.365Z,82.48
2022-10-31T13:50:59.484Z,82.29
2022-10-31T13:53:38.075Z,82.25
2022-10-31T13:56:12.510Z,82.34
2022-10-31T13:58:39.333Z,82.31
2022-10-31T14:01:18.559Z,82.10
2022-10-31T14:04:10.970Z,82.06
2022-10-31T14:06:41.486Z,82.18
2022-10-31T14:09:23.846Z,82.28
2022-10-31T14:11:55.627Z,82.14
2022-10-31T14:14:29.702Z,81.98
2022-10-31T14:16:59.042Z,81.97
2022-10-31T14:19:27.161Z,82.10
2022-10-31T14:21:54.073Z,82.09
2022-10-31T14:24:33.986Z,82.02
2022-10-31T14:27:04.251Z,82.05
2022-10-31T14:29:32.645Z,82.00
2022-10-31T14:32:14.425Z,81.87
2022-10-31T14:34:43.074Z,81.88
2022-10-31T14:37:26.542Z,81.91
2022-10-31T14:40:06.346Z,81.89
2022-10-31T14:42:48.461Z,81.86
2022-10-31T14:45:26.585Z,81.88
2022-10-31T14:48:08.205Z,82.14
2022-10-31T14:50:47.654Z,82.17
2022-10-31T14:53:19.439Z,82.01
2022-10-31T14:55:50.485Z,81.86
2022-10-31T14:58:22.671Z,81.96
2022-10-31T15:00:51.903Z,82.02
2022-10-31T15:03:26.567Z,81.98
2022-10-31T15:05:57.540Z,81.91
2022-10-31T15:08:38.756Z,81.85
2022-10-31T15:11:12.405Z,81.92
2022-10-31T15:13:46.500Z,81.98
2022-10-31T15:16:15.632Z,82.04
2022-10-31T15:18:50.024Z,82.30
2022-10-31T15:21:17.971Z,82.25
2022-10-31T15:23:45.537Z,82.31
2022-10-31T15:26:19.398Z,82.25
2022-10-31T15:28:58.051Z,82.35
2022-10-31T15:31:24.785Z,82.34
2022-10-31T15:33:52.594Z,82.33
2022-10-31T15:36:24.100Z,82.42
2022-10-31T15:38:57.087Z,82.51
2022-10-31T15:41:35.392Z,82.56
2022-10-31T15:44:08.469Z,82.55
2022-10-31T15:46:35.281Z,82.59
2022-10-31T15:49:02.076Z,82.61
2022-10-31T15:51:35.470Z,82.73
2022-10-31T15:54:02.530Z,82.61
2022-10-31T15:56:31.722Z,82.79
2022-10-31T15:59:01.420Z,82.85
2022-10-31T16:01:31.531Z,82.76
2022-10-31T16:04:00.773Z,82.74
2022-10-31T16:06:27.979Z,82.75
2022-10-31T16:08:56.270Z,82.68
2022-10-31T16:11:26.185Z,82.61
2022-10-31T16:13:55.669Z,82.78
2022-10-31T16:16:38.667Z,82.85
2022-10-31T16:19:18.768Z,82.93
2022-10-31T16:21:46.340Z,82.82
2022-10-31T16:24:19.942Z,83.05
2022-10-31T16:26:51.291Z,83.16
2022-10-31T16:29:34.168Z,83.01
2022-10-31T16:32:01.060Z,83.23
2022-10-31T16:34:30.461Z,83.28
2022-10-31T16:36:57.238Z,83.35
2022-10-31T16:39:24.052Z,83.36
2022-10-31T16:41:53.833Z,83.23
2022-10-31T16:44:35.985Z,83.45
2022-10-31T16:47:11.338Z,83.36
2022-10-31T16:49:39.918Z,83.67
2022-10-31T16:52:08.239Z,83.56
2022-10-31T16:54:35.283Z,83.57
2022-10-31T16:57:05.014Z,83.67
2022-10-31T16:59:34.351Z,83.74
2022-10-31T17:02:02.352Z,83.60
2022-10-31T17:04:32.647Z,83.73
2022-10-31T17:07:00.792Z,83.87
2022-10-31T17:09:27.474Z,83.94
2022-10-31T17:11:55.252Z,84.00
2022-10-31T17:14:22.228Z,84.03
2022-10-31T17:16:49.278Z,84.19
2022-10-31T17:19:16.847Z,84.08
2022-10-31T17:21:43.616Z,84.12
2022-10-31T17:24:14.955Z,84.24
2022-10-31T17:26:44.752Z,84.34
2022-10-31T17:29:11.562Z,84.42
2022-10-31T17:31:39.397Z,84.36
2022-10-31T17:34:07.273Z,84.38
2022-10-31T17:36:34.677Z,84.45
2022-10-31T17:39:01.846Z,84.55
2022-10-31T17:41:34.248Z,84.48
2022-10-31T17:44:01.125Z,84.39
2022-10-31T17:46:28.559Z,84.58
2022-10-31T17:48:55.742Z,84.71
2022-10-31T17:51:22.608Z,84.56
2022-10-31T17:53:50.863Z,84.76
2022-10-31T17:56:18.194Z,84.71
2022-10-31T17:58:46.427Z,84.69
2022-10-31T18:01:15.536Z,84.78
2022-10-31T18:03:42.721Z,84.84
2022-10-31T18:06:10.585Z,84.82
2022-10-31T18:08:40.867Z,84.66
2022-10-31T18:11:09.846Z,85.02
2022-10-31T18:13:40.465Z,84.98
2022-10-31T18:16:10.130Z,84.81
2022-10-31T18:18:41.764Z,84.78
2022-10-31T18:21:08.867Z,84.77
2022-10-31T18:23:36.551Z,84.94
2022-10-31T18:26:03.799Z,84.79
2022-10-31T18:28:30.549Z,85.01
2022-10-31T18:30:58.841Z,85.06
2022-10-31T18:33:27.627Z,85.03
2022-10-31T18:35:54.261Z,84.96
2022-10-31T18:38:24.190Z,85.01
2022-10-31T18:40:51.673Z,85.09
2022-10-31T18:43:19.065Z,85.16
2022-10-31T18:45:48.105Z,84.87
2022-10-31T18:48:17.470Z,84.91
2022-10-31T18:50:46.200Z,85.03
2022-10-31T18:53:15.349Z,85.18
2022-10-31T18:55:45.743Z,84.96
2022-10-31T18:58:19.345Z,84.95
2022-10-31T19:00:46.620Z,84.93
2022-10-31T19:03:20.730Z,85.29
2022-10-31T19:05:54.829Z,84.92
2022-10-31T19:08:21.988Z,85.06
2022-10-31T19:10:51.507Z,85.18
2022-10-31T19:13:18.406Z,85.16
2022-10-31T19:15:45.530Z,85.10
2022-10-31T19:18:12.243Z,85.04
2022-10-31T19:20:40.674Z,84.82
2022-10-31T19:23:09.044Z,84.94
2022-10-31T19:25:36.187Z,84.86
2022-10-31T19:28:03.516Z,84.60
2022-10-31T19:30:30.897Z,84.69
2022-10-31T19:32:57.651Z,84.50
2022-10-31T19:35:25.609Z,84.45
2022-10-31T19:37:52.918Z,84.45
2022-10-31T19:40:21.183Z,84.51
2022-10-31T19:42:48.658Z,84.42
2022-10-31T19:45:15.414Z,84.44
2022-10-31T19:47:43.106Z,84.49
2022-10-31T19:50:10.330Z,84.29
2022-10-31T19:52:37.057Z,84.13
2022-10-31T19:55:04.579Z,84.33
2022-10-31T19:57:56.658Z,84.12
2022-10-31T20:00:25.165Z,84.39
2022-10-31T20:02:55.132Z,84.07
2022-10-31T20:05:24.927Z,84.32
2022-10-31T20:07:51.834Z,84.30
2022-10-31T20:10:18.724Z,84.15
2022-10-31T20:12:46.840Z,84.14
2022-10-31T20:15:13.682Z,84.25
2022-10-31T20:17:41.444Z,83.99
2022-10-31T20:20:09.522Z,83.93
2022-10-31T20:22:36.986Z,83.98
2022-10-31T20:25:05.422Z,84.02
2022-10-31T20:27:32.844Z,84.16
2022-10-31T20:30:01.715Z,83.99
2022-10-31T20:32:28.869Z,84.10
2022-10-31T20:34:55.840Z,84.16
2022-10-31T20:37:27.379Z,84.03
2022-10-31T20:40:01.982Z,83.86
2022-10-31T20:42:29.055Z,83.95
2022-10-31T20:44:55.939Z,83.78
2022-10-31T20:47:25.855Z,83.90
2022-10-31T20:49:53.201Z,83.96
2022-10-31T20:52:20.350Z,83.72
2022-10-31T20:54:47.172Z,83.62
2022-10-31T20:57:13.894Z,83.98
2022-10-31T20:59:40.614Z,83.77
2022-10-31T21:02:07.403Z,83.70
2022-10-31T21:04:36.633Z,83.99
2022-10-31T21:07:03.859Z,84.05
2022-10-31T21:09:30.572Z,84.04
2022-10-31T21:11:57.446Z,84.03
2022-10-31T21:14:24.310Z,83.92
2022-10-31T21:16:53.301Z,84.13
2022-10-31T21:19:20.405Z,83.72
2022-10-31T21:21:48.946Z,84.11
2022-10-31T21:26:52.251Z,84.01
2022-10-31T21:29:20.260Z,84.16
2022-10-31T21:31:48.347Z,84.19
2022-10-31T21:34:15.862Z,84.40
2022-10-31T21:36:43.971Z,84.62
2022-10-31T21:39:13.932Z,84.46
2022-10-31T21:41:42.360Z,84.78
2022-10-31T21:44:10.132Z,84.11
2022-10-31T21:46:39.198Z,84.19
2022-10-31T21:49:07.099Z,83.99
2022-10-31T21:51:36.825Z,84.45
2022-10-31T21:54:23.110Z,84.33
2022-10-31T21:56:51.862Z,84.47
2022-10-31T21:59:18.403Z,84.46
2022-10-31T22:01:45.521Z,84.39
2022-10-31T22:04:14.330Z,84.17
2022-10-31T22:06:40.797Z,84.36
2022-10-31T22:09:12.137Z,84.07
2022-10-31T22:11:39.296Z,84.34
2022-10-31T22:14:07.982Z,84.55
2022-10-31T22:16:36.311Z,84.40
2022-10-31T22:19:05.867Z,84.40
2022-10-31T22:21:37.686Z,84.54
2022-10-31T22:24:05.223Z,84.49
2022-10-31T22:26:36.993Z,84.71
2022-10-31T22:29:05.257Z,84.52
2022-10-31T22:31:34.302Z,84.62
2022-10-31T22:34:01.266Z,84.79
2022-10-31T22:36:29.691Z,84.36
2022-10-31T22:38:57.923Z,84.56
2022-10-31T22:41:27.717Z,84.51
2022-10-31T22:43:55.433Z,84.51
2022-10-31T22:46:24.527Z,84.36
2022-10-31T22:48:59.919Z,84.62
2022-10-31T22:51:29.019Z,84.20
2022-10-31T22:53:56.790Z,84.29
2022-10-31T22:56:26.607Z,84.03
2022-10-31T22:58:53.960Z,84.16
2022-10-31T23:01:22.637Z,84.13
2022-10-31T23:03:49.740Z,84.27
2022-10-31T23:06:20.442Z,84.23
2022-10-31T23:08:47.967Z,84.20
2022-10-31T23:11:19.131Z,84.02
2022-10-31T23:14:04.713Z,84.06
2022-10-31T23:16:31.875Z,84.22
2022-10-31T23:18:59.068Z,84.09
2022-10-31T23:21:46.461Z,84.19
2022-10-31T23:24:13.298Z,84.14
2022-10-31T23:26:59.151Z,84.11
2022-10-31T23:29:25.862Z,84.13
2022-10-31T23:31:54.682Z,83.99
2022-10-31T23:34:21.977Z,83.80
2022-10-31T23:36:50.362Z,83.74
2022-10-31T23:39:19.993Z,83.89
2022-10-31T23:41:50.722Z,83.89
2022-10-31T23:44:18.090Z,83.78
2022-10-31T23:46:45.028Z,83.81
2022-10-31T23:49:11.935Z,83.67
2022-10-31T23:51:39.386Z,83.61
2022-10-31T23:54:07.936Z,83.45
2022-10-31T23:56:36.981Z,83.41
2022-10-31T23:59:04.162Z,83.45
